createdAt,value
2018-06-15T00:00:24.070Z,28.40
2018-06-15T00:02:57.917Z,28.27
2018-06-15T00:05:26.181Z,27.75
2018-06-15T00:07:54.455Z,26.00
2018-06-15T00:10:22.884Z,25.02
2018-06-15T00:12:51.157Z,25.23
2018-06-15T00:15:19.385Z,25.75
2018-06-15T00:17:47.358Z,27.15
2018-06-15T00:20:15.602Z,28.02
2018-06-15T00:22:43.853Z,30.17
2018-06-15T00:25:12.095Z,29.60
2018-06-15T00:27:40.345Z,28.95
2018-06-15T00:30:08.815Z,29.30
2018-06-15T00:32:37.026Z,29.50
2018-06-15T00:35:05.282Z,28.53
2018-06-15T00:37:33.400Z,28.30
2018-06-15T00:40:01.624Z,28.70
2018-06-15T00:42:29.890Z,29.50
2018-06-15T00:44:58.138Z,28.77
2018-06-15T00:47:26.407Z,29.25
2018-06-15T00:49:54.679Z,30.57
2018-06-15T00:52:22.986Z,30.05
2018-06-15T00:54:51.204Z,28.83
2018-06-15T00:57:30.957Z,30.50
2018-06-15T00:59:58.929Z,28.45
2018-06-15T01:02:27.217Z,27.82
2018-06-15T01:04:55.502Z,30.02
2018-06-15T01:07:23.515Z,28.33
2018-06-15T01:09:51.739Z,29.15
2018-06-15T01:12:19.985Z,29.12
2018-06-15T01:14:48.245Z,29.40
2018-06-15T01:17:16.630Z,29.10
2018-06-15T01:19:44.915Z,29.23
2018-06-15T01:22:13.132Z,29.32
2018-06-15T01:24:41.370Z,29.72
2018-06-15T01:27:09.601Z,29.55
2018-06-15T01:29:37.847Z,30.30
2018-06-15T01:32:06.058Z,30.77
2018-06-15T01:34:34.311Z,29.63
2018-06-15T01:37:02.576Z,30.68
2018-06-15T01:39:30.819Z,31.60
2018-06-15T01:41:59.051Z,33.00
2018-06-15T01:44:27.312Z,30.80
2018-06-15T01:46:55.548Z,31.60
2018-06-15T01:49:23.787Z,30.50
2018-06-15T01:51:52.029Z,29.55
2018-06-15T01:54:20.265Z,30.80
2018-06-15T01:56:48.508Z,32.30
2018-06-15T01:59:16.765Z,32.20
2018-06-15T02:01:45.034Z,32.63
2018-06-15T02:04:13.299Z,32.63
2018-06-15T02:06:41.544Z,32.85
2018-06-15T02:09:10.202Z,34.30
2018-06-15T02:11:38.469Z,33.58
2018-06-15T02:14:06.761Z,34.63
2018-06-15T02:16:35.026Z,34.57
2018-06-15T02:19:03.259Z,34.27
2018-06-15T02:21:31.485Z,37.00
2018-06-15T02:23:59.746Z,35.58
2018-06-15T02:26:27.991Z,35.33
2018-06-15T02:28:56.253Z,37.53
2018-06-15T02:31:24.563Z,36.80
2018-06-15T02:33:52.836Z,36.03
2018-06-15T02:36:21.195Z,38.67
2018-06-15T02:38:49.438Z,39.03
2018-06-15T02:41:18.698Z,38.53
2018-06-15T02:43:46.905Z,39.70
2018-06-15T02:46:15.139Z,41.35
2018-06-15T02:48:43.365Z,40.20
2018-06-15T02:51:11.613Z,41.28
2018-06-15T02:53:40.046Z,43.30
2018-06-15T02:56:08.292Z,42.40
2018-06-15T02:58:36.562Z,40.95
2018-06-15T03:01:05.225Z,40.35
2018-06-15T03:03:33.459Z,40.83
2018-06-15T03:06:01.782Z,39.90
2018-06-15T03:08:30.041Z,40.60
2018-06-15T03:10:58.252Z,39.55
2018-06-15T03:13:26.474Z,40.30
2018-06-15T03:15:54.729Z,40.40
2018-06-15T03:18:23.023Z,42.08
2018-06-15T03:20:51.282Z,40.88
2018-06-15T03:23:19.578Z,39.15
2018-06-15T03:25:47.822Z,40.43
2018-06-15T03:28:16.098Z,38.95
2018-06-15T03:30:44.436Z,39.42
2018-06-15T03:33:12.710Z,31.10
2018-06-15T03:35:40.948Z,31.03
2018-06-15T03:38:09.206Z,32.80
2018-06-15T03:40:37.170Z,29.90
2018-06-15T03:43:05.497Z,32.70
2018-06-15T03:45:33.723Z,30.83
2018-06-15T03:48:01.959Z,32.37
2018-06-15T03:50:30.193Z,33.30
2018-06-15T03:52:58.433Z,32.27
2018-06-15T03:55:26.709Z,31.97
2018-06-15T03:57:54.697Z,32.90
2018-06-15T04:00:23.142Z,33.30
2018-06-15T04:02:51.387Z,33.07
2018-06-15T04:05:19.671Z,31.43
2018-06-15T04:07:47.919Z,34.70
2018-06-15T04:10:16.155Z,31.70
2018-06-15T04:12:44.669Z,31.77
2018-06-15T04:15:12.934Z,38.05
2018-06-15T04:17:41.523Z,40.23
2018-06-15T04:20:09.809Z,39.55
2018-06-15T04:22:38.055Z,38.95
2018-06-15T04:25:06.328Z,39.40
2018-06-15T04:27:34.648Z,39.85
2018-06-15T04:30:02.942Z,39.98
2018-06-15T04:32:31.227Z,39.00
2018-06-15T04:34:59.669Z,37.00
2018-06-15T04:37:28.214Z,38.23
2018-06-15T04:39:57.903Z,39.40
2018-06-15T04:42:26.203Z,37.53
2018-06-15T04:44:54.469Z,37.85
2018-06-15T04:47:22.738Z,38.30
2018-06-15T04:49:51.006Z,37.73
2018-06-15T04:52:19.254Z,37.70
2018-06-15T04:54:47.487Z,36.55
2018-06-15T04:57:15.728Z,36.90
2018-06-15T04:59:44.001Z,38.45
2018-06-15T05:02:12.263Z,37.55
2018-06-15T05:04:40.487Z,37.20
2018-06-15T05:07:08.734Z,36.55
2018-06-15T05:09:36.992Z,36.70
2018-06-15T05:12:05.297Z,37.50
2018-06-15T05:14:33.533Z,35.98
2018-06-15T05:17:01.764Z,35.60
2018-06-15T05:19:30.105Z,35.17
2018-06-15T05:21:58.349Z,36.25
2018-06-15T05:24:26.791Z,36.33
2018-06-15T05:26:55.049Z,37.50
2018-06-15T05:29:23.325Z,37.60
2018-06-15T05:31:51.564Z,36.77
2018-06-15T05:34:19.951Z,35.13
2018-06-15T05:36:48.175Z,35.27
2018-06-15T05:39:16.719Z,35.55
2018-06-15T05:41:45.007Z,36.05
2018-06-15T05:44:13.244Z,36.40
2018-06-15T05:46:41.505Z,35.65
2018-06-15T05:49:09.945Z,35.68
2018-06-15T05:51:38.381Z,35.15
2018-06-15T05:54:06.652Z,35.80
2018-06-15T05:56:34.959Z,36.30
2018-06-15T05:59:03.214Z,35.40
2018-06-15T06:01:31.462Z,35.65
2018-06-15T06:03:59.926Z,34.45
2018-06-15T06:06:28.091Z,34.20
2018-06-15T06:08:56.342Z,33.87
2018-06-15T06:11:24.619Z,32.80
2018-06-15T06:13:52.879Z,33.83
2018-06-15T06:16:21.108Z,33.70
2018-06-15T06:18:49.359Z,34.45
2018-06-15T06:21:17.604Z,33.50
2018-06-15T06:23:45.841Z,33.10
2018-06-15T06:26:14.115Z,32.30
2018-06-15T06:28:42.398Z,32.67
2018-06-15T06:31:10.646Z,34.20
2018-06-15T06:33:38.914Z,31.80
2018-06-15T06:36:07.158Z,28.57
2018-06-15T06:38:35.397Z,28.47
2018-06-15T06:41:03.673Z,28.30
2018-06-15T06:43:31.890Z,27.70
2018-06-15T06:46:00.148Z,27.53
2018-06-15T06:48:28.396Z,27.20
2018-06-15T06:50:56.633Z,29.00
2018-06-15T06:53:24.875Z,27.23
2018-06-15T06:55:53.124Z,26.20
2018-06-15T06:58:21.758Z,26.40
2018-06-15T07:00:50.035Z,27.40
2018-06-15T07:03:18.264Z,26.00
2018-06-15T07:05:46.515Z,26.47
2018-06-15T07:08:14.779Z,27.77
2018-06-15T07:10:42.987Z,24.17
2018-06-15T07:13:11.283Z,27.53
2018-06-15T07:15:39.502Z,28.67
2018-06-15T07:18:07.718Z,26.83
2018-06-15T07:20:35.997Z,25.43
2018-06-15T07:23:04.212Z,27.30
2018-06-15T07:25:32.456Z,27.07
2018-06-15T07:28:00.703Z,24.83
2018-06-15T07:30:28.967Z,25.50
2018-06-15T07:32:57.202Z,26.07
2018-06-15T07:35:25.482Z,27.20
2018-06-15T07:37:53.718Z,27.20
2018-06-15T07:40:22.007Z,24.87
2018-06-15T07:42:50.245Z,25.57
2018-06-15T07:45:18.457Z,26.10
2018-06-15T07:47:46.720Z,27.20
2018-06-15T07:50:14.963Z,23.13
2018-06-15T07:52:43.218Z,24.17
2018-06-15T07:55:11.486Z,22.00
2018-06-15T07:57:39.717Z,22.30
2018-06-15T08:00:07.961Z,21.40
2018-06-15T08:02:36.160Z,19.13
2018-06-15T08:05:04.427Z,22.13
2018-06-15T08:07:32.666Z,18.23
2018-06-15T08:10:00.914Z,18.40
2018-06-15T08:12:29.143Z,18.77
2018-06-15T08:14:57.429Z,21.17
2018-06-15T08:17:25.646Z,18.80
2018-06-15T08:19:53.876Z,19.13
2018-06-15T08:22:22.105Z,18.10
2018-06-15T08:24:50.401Z,19.03
2018-06-15T08:27:18.623Z,18.83
2018-06-15T08:29:46.841Z,17.37
2018-06-15T08:32:15.119Z,18.23
2018-06-15T08:34:43.385Z,17.53
2018-06-15T08:37:11.644Z,17.30
2018-06-15T08:39:39.841Z,18.90
2018-06-15T08:42:08.069Z,17.20
2018-06-15T08:44:36.326Z,18.87
2018-06-15T08:47:04.315Z,20.50
2018-06-15T08:49:32.569Z,20.00
2018-06-15T08:52:00.798Z,20.50
2018-06-15T08:54:29.149Z,18.97
2018-06-15T08:56:57.370Z,20.03
2018-06-15T08:59:25.635Z,19.30
2018-06-15T09:01:53.941Z,18.67
2018-06-15T09:04:22.195Z,20.40
2018-06-15T09:06:50.434Z,20.90
2018-06-15T09:09:18.771Z,20.10
2018-06-15T09:11:47.039Z,20.63
2018-06-15T09:14:15.314Z,18.10
2018-06-15T09:16:43.563Z,21.12
2018-06-15T09:19:11.573Z,20.20
2018-06-15T09:21:39.807Z,19.40
2018-06-15T09:24:08.056Z,22.13
2018-06-15T09:26:36.307Z,21.35
2018-06-15T09:29:04.289Z,22.42
2018-06-15T09:31:32.309Z,20.90
2018-06-15T09:34:00.790Z,20.65
2018-06-15T09:36:29.571Z,18.17
2018-06-15T09:38:57.832Z,19.07
2018-06-15T09:41:26.074Z,20.75
2018-06-15T09:43:54.775Z,17.73
2018-06-15T09:46:23.047Z,19.85
2018-06-15T09:48:51.569Z,19.05
2018-06-15T09:51:19.842Z,18.05
2018-06-15T09:53:48.058Z,19.10
2018-06-15T09:56:16.350Z,18.10
2018-06-15T09:58:44.628Z,17.00
2018-06-15T10:01:12.785Z,18.25
2018-06-15T10:03:41.281Z,17.10
2018-06-15T10:06:09.558Z,16.03
2018-06-15T10:08:37.805Z,16.13
2018-06-15T10:11:06.429Z,17.27
2018-06-15T10:13:34.674Z,17.10
2018-06-15T10:16:02.976Z,17.60
2018-06-15T10:18:31.227Z,16.60
2018-06-15T10:20:59.441Z,17.50
2018-06-15T10:23:27.694Z,17.83
2018-06-15T10:25:56.034Z,16.27
2018-06-15T10:28:24.316Z,17.60
2018-06-15T10:30:52.567Z,17.50
2018-06-15T10:33:20.806Z,15.90
2018-06-15T10:35:49.058Z,17.13
2018-06-15T10:38:17.488Z,15.43
2018-06-15T10:40:45.770Z,16.27
2018-06-15T10:43:14.006Z,16.57
2018-06-15T10:45:42.293Z,15.17
2018-06-15T10:48:10.909Z,15.87
2018-06-15T10:50:39.149Z,14.10
2018-06-15T10:53:07.414Z,13.93
2018-06-15T10:55:35.644Z,14.20
2018-06-15T10:58:03.905Z,13.23
2018-06-15T11:00:32.179Z,13.97
2018-06-15T11:03:00.611Z,12.17
2018-06-15T11:05:28.566Z,14.27
2018-06-15T11:07:56.573Z,13.20
2018-06-15T11:10:24.840Z,13.13
2018-06-15T11:12:53.055Z,13.67
2018-06-15T11:15:21.279Z,14.50
2018-06-15T11:17:49.546Z,14.80
2018-06-15T11:20:17.804Z,13.80
2018-06-15T11:22:46.053Z,14.93
2018-06-15T11:25:14.306Z,15.63
2018-06-15T11:27:42.549Z,15.53
2018-06-15T11:30:10.538Z,17.73
2018-06-15T11:32:39.534Z,15.20
2018-06-15T11:35:07.803Z,16.77
2018-06-15T11:40:03.535Z,14.63
2018-06-15T11:42:31.778Z,13.30
2018-06-15T11:44:59.765Z,13.00
2018-06-15T11:47:28.014Z,14.10
2018-06-15T11:49:56.270Z,13.47
2018-06-15T11:52:24.662Z,13.83
2018-06-15T11:54:52.898Z,14.25
2018-06-15T11:57:21.161Z,13.70
2018-06-15T11:59:49.429Z,14.70
2018-06-15T12:02:17.670Z,14.07
2018-06-15T12:04:45.648Z,13.73
2018-06-15T12:07:13.894Z,13.18
2018-06-15T12:09:42.205Z,11.80
2018-06-15T12:12:10.464Z,14.20
2018-06-15T12:14:38.708Z,12.68
2018-06-15T12:17:06.959Z,13.35
2018-06-15T12:19:35.228Z,12.77
2018-06-15T12:22:03.471Z,13.47
2018-06-15T12:24:31.755Z,12.90
2018-06-15T12:27:00.012Z,11.68
2018-06-15T12:29:28.250Z,12.43
2018-06-15T12:31:56.541Z,12.65
2018-06-15T12:34:24.797Z,12.70
2018-06-15T12:36:53.043Z,11.47
2018-06-15T12:39:21.266Z,11.30
2018-06-15T12:41:49.522Z,11.78
2018-06-15T12:44:17.749Z,11.30
2018-06-15T12:46:45.996Z,13.50
2018-06-15T12:49:14.243Z,14.25
2018-06-15T12:51:42.495Z,13.25
2018-06-15T12:54:10.789Z,12.68
2018-06-15T12:56:39.069Z,14.50
2018-06-15T12:59:07.316Z,14.33
2018-06-15T13:01:35.590Z,13.43
2018-06-15T13:04:03.827Z,14.28
2018-06-15T13:06:32.091Z,14.60
2018-06-15T13:09:00.311Z,14.37
2018-06-15T13:11:28.653Z,14.90
2018-06-15T13:13:56.955Z,14.10
2018-06-15T13:16:25.241Z,13.10
2018-06-15T13:18:53.554Z,14.75
2018-06-15T13:21:21.913Z,15.00
2018-06-15T13:23:50.229Z,14.70
2018-06-15T13:26:18.209Z,14.60
2018-06-15T13:28:46.455Z,14.10
2018-06-15T13:31:14.498Z,13.43
2018-06-15T13:33:49.027Z,11.90
2018-06-15T13:36:17.319Z,12.98
2018-06-15T13:38:45.693Z,13.93
2018-06-15T13:41:14.015Z,13.90
2018-06-15T13:43:42.335Z,13.20
2018-06-15T13:46:10.326Z,13.98
2018-06-15T13:48:38.638Z,13.35
2018-06-15T13:51:06.998Z,13.93
2018-06-15T13:53:35.335Z,14.05
2018-06-15T13:56:03.590Z,13.38
2018-06-15T13:58:32.096Z,13.80
2018-06-15T14:01:00.345Z,13.30
2018-06-15T14:03:28.610Z,12.25
2018-06-15T14:05:56.833Z,8.30
2018-06-15T14:08:24.814Z,9.33
2018-06-15T14:10:52.798Z,9.07
2018-06-15T14:13:21.033Z,10.40
2018-06-15T14:15:49.345Z,11.68
2018-06-15T14:18:17.607Z,10.90
2018-06-15T14:20:45.870Z,10.23
2018-06-15T14:23:14.106Z,9.90
2018-06-15T14:25:42.367Z,9.55
2018-06-15T14:28:10.668Z,9.30
2018-06-15T14:30:39.258Z,10.40
2018-06-15T14:33:07.506Z,10.10
2018-06-15T14:35:35.513Z,9.17
2018-06-15T14:38:04.063Z,9.68
2018-06-15T14:40:32.333Z,8.70
2018-06-15T14:43:00.615Z,8.35
2018-06-15T14:45:28.849Z,8.40
2018-06-15T14:47:56.823Z,8.68
2018-06-15T14:50:24.817Z,7.80
2018-06-15T14:52:53.127Z,8.45
2018-06-15T14:55:21.406Z,7.45
2018-06-15T14:57:49.691Z,7.45
2018-06-15T15:00:17.974Z,7.65
2018-06-15T15:02:46.220Z,7.45
2018-06-15T15:05:14.492Z,8.30
2018-06-15T15:07:42.778Z,6.67
2018-06-15T15:10:10.995Z,6.90
2018-06-15T15:12:39.267Z,6.90
2018-06-15T15:15:07.491Z,7.55
2018-06-15T15:17:35.987Z,7.65
2018-06-15T15:20:04.025Z,7.22
2018-06-15T15:22:32.250Z,7.63
2018-06-15T15:25:00.759Z,7.65
2018-06-15T15:27:29.029Z,7.50
2018-06-15T15:29:57.119Z,7.35
2018-06-15T15:32:25.113Z,7.60
2018-06-15T15:34:53.326Z,7.55
2018-06-15T15:37:21.688Z,7.37
2018-06-15T15:39:49.944Z,7.40
2018-06-15T15:42:18.192Z,7.10
2018-06-15T15:44:46.435Z,7.10
2018-06-15T15:47:14.665Z,7.60
2018-06-15T15:49:42.954Z,7.60
2018-06-15T15:52:11.204Z,7.40
2018-06-15T15:54:39.592Z,6.80
2018-06-15T15:57:07.590Z,5.92
2018-06-15T15:59:35.825Z,6.67
2018-06-15T16:02:04.162Z,6.40
2018-06-15T16:04:32.486Z,5.67
2018-06-15T16:07:00.722Z,6.23
2018-06-15T16:09:28.986Z,5.60
2018-06-15T16:11:57.274Z,6.33
2018-06-15T16:14:25.507Z,6.10
2018-06-15T16:16:53.990Z,6.58
2018-06-15T16:19:22.290Z,6.97
2018-06-15T16:21:50.525Z,9.20
2018-06-15T16:24:18.799Z,8.30
2018-06-15T16:26:47.157Z,6.80
2018-06-15T16:29:15.414Z,6.35
2018-06-15T16:31:43.723Z,6.30
2018-06-15T16:34:11.963Z,6.40
2018-06-15T16:36:40.241Z,6.30
2018-06-15T16:39:09.143Z,6.10
2018-06-15T16:41:37.911Z,7.00
2018-06-15T16:44:11.245Z,7.10
2018-06-15T16:46:39.546Z,6.00
2018-06-15T16:49:09.389Z,6.42
2018-06-15T16:51:37.665Z,6.58
2018-06-15T16:54:06.026Z,5.92
2018-06-15T16:56:34.276Z,7.62
2018-06-15T16:59:02.509Z,7.70
2018-06-15T17:01:43.651Z,8.53
2018-06-15T17:04:19.479Z,7.27
2018-06-15T17:06:51.812Z,7.05
2018-06-15T17:09:20.141Z,6.45
2018-06-15T17:11:54.797Z,6.87
2018-06-15T17:14:23.054Z,6.50
2018-06-15T17:16:51.335Z,6.97
2018-06-15T17:19:21.835Z,8.00
2018-06-15T17:21:58.017Z,7.30
2018-06-15T17:24:27.282Z,7.72
2018-06-15T17:26:56.532Z,7.47
2018-06-15T17:32:03.041Z,7.10
2018-06-15T17:34:31.275Z,7.90
2018-06-15T17:36:59.584Z,7.80
2018-06-15T17:39:27.817Z,7.60
2018-06-15T17:41:56.085Z,7.30
2018-06-15T17:44:24.365Z,7.50
2018-06-15T17:46:52.679Z,7.50
2018-06-15T17:49:20.987Z,7.78
2018-06-15T17:51:49.356Z,7.20
2018-06-15T17:54:17.594Z,7.12
2018-06-15T17:56:45.835Z,7.10
2018-06-15T17:59:14.089Z,7.17
2018-06-15T18:01:42.306Z,6.90
2018-06-15T18:04:10.573Z,6.87
2018-06-15T18:06:38.828Z,6.90
2018-06-15T18:09:08.635Z,6.65
2018-06-15T18:11:36.943Z,6.90
2018-06-15T18:14:05.261Z,6.60
2018-06-15T18:16:33.649Z,7.10
2018-06-15T18:19:01.905Z,7.40
2018-06-15T18:21:30.152Z,7.00
2018-06-15T18:23:58.440Z,7.78
2018-06-15T18:26:26.659Z,19.65
2018-06-15T18:28:54.966Z,9.17
2018-06-15T18:31:23.008Z,14.80
2018-06-15T18:33:51.296Z,21.57
2018-06-15T18:36:19.591Z,6.83
2018-06-15T18:38:47.836Z,6.45
2018-06-15T18:41:16.123Z,6.62
2018-06-15T18:43:44.367Z,6.50
2018-06-15T18:46:12.596Z,6.30
2018-06-15T18:48:40.837Z,6.30
2018-06-15T18:51:09.109Z,6.75
2018-06-15T18:53:37.364Z,7.00
2018-06-15T18:56:05.630Z,7.00
2018-06-15T18:58:34.755Z,7.20
2018-06-15T19:01:02.988Z,6.90
2018-06-15T19:03:31.236Z,6.70
2018-06-15T19:05:59.520Z,7.40
2018-06-15T19:08:27.768Z,7.20
2018-06-15T19:10:56.013Z,7.05
2018-06-15T19:13:24.301Z,7.03
2018-06-15T19:15:52.567Z,6.60
2018-06-15T19:18:20.837Z,7.00
2018-06-15T19:20:49.059Z,6.70
2018-06-15T19:23:17.275Z,6.40
2018-06-15T19:25:45.534Z,6.47
2018-06-15T19:28:13.772Z,6.58
2018-06-15T19:30:42.035Z,7.45
2018-06-15T19:33:10.273Z,7.80
2018-06-15T19:35:38.565Z,7.90
2018-06-15T19:38:06.824Z,8.65
2018-06-15T19:40:35.042Z,7.50
2018-06-15T19:43:03.413Z,7.80
2018-06-15T19:45:31.401Z,8.63
2018-06-15T19:47:59.647Z,8.35
2018-06-15T19:50:27.945Z,10.28
2018-06-15T19:52:56.241Z,10.10
2018-06-15T19:55:24.527Z,9.48
2018-06-15T19:57:52.775Z,9.10
2018-06-15T20:00:21.075Z,9.73
2018-06-15T20:02:49.368Z,12.40
2018-06-15T20:05:17.608Z,10.93
2018-06-15T20:07:45.911Z,17.15
2018-06-15T20:10:14.141Z,10.08
2018-06-15T20:12:42.355Z,11.20
2018-06-15T20:15:10.593Z,8.45
2018-06-15T20:17:38.864Z,8.50
2018-06-15T20:20:07.261Z,8.60
2018-06-15T20:22:35.529Z,9.48
2018-06-15T20:25:03.520Z,8.80
2018-06-15T20:27:31.758Z,8.63
2018-06-15T20:30:02.668Z,14.10
2018-06-15T20:32:36.349Z,13.50
2018-06-15T20:35:08.191Z,10.18
2018-06-15T20:37:36.599Z,9.48
2018-06-15T20:42:56.358Z,9.48
2018-06-15T20:45:24.745Z,9.85
2018-06-15T20:47:52.761Z,11.10
2018-06-15T20:50:24.607Z,12.20
2018-06-15T20:52:52.898Z,13.78
2018-06-15T20:55:21.195Z,11.38
2018-06-15T20:57:49.567Z,10.48
2018-06-15T21:00:17.567Z,11.47
2018-06-15T21:02:45.536Z,11.37
2018-06-15T21:05:13.804Z,11.20
2018-06-15T21:07:42.043Z,13.40
2018-06-15T21:10:10.380Z,14.65
2018-06-15T21:12:38.660Z,14.25
2018-06-15T21:15:07.561Z,12.93
2018-06-15T21:17:35.873Z,18.07
2018-06-15T21:20:04.137Z,12.73
2018-06-15T21:22:32.407Z,12.60
2018-06-15T21:25:00.764Z,13.60
2018-06-15T21:27:28.881Z,13.50
2018-06-15T21:29:58.447Z,13.53
2018-06-15T21:32:28.614Z,18.70
2018-06-15T21:34:58.410Z,15.40
2018-06-15T21:37:27.601Z,14.47
2018-06-15T21:39:56.519Z,13.60
2018-06-15T21:42:26.279Z,13.70
2018-06-15T21:44:57.556Z,12.77
2018-06-15T21:47:29.490Z,14.30
2018-06-15T21:49:58.123Z,14.85
2018-06-15T21:52:26.407Z,14.98
2018-06-15T21:54:54.895Z,17.00
2018-06-15T21:57:23.311Z,16.37
2018-06-15T21:59:51.587Z,15.55
2018-06-15T22:02:19.917Z,14.83
2018-06-15T22:04:48.149Z,15.60
2018-06-15T22:07:16.527Z,15.05
2018-06-15T22:09:44.807Z,15.85
2018-06-15T22:12:13.073Z,15.00
2018-06-15T22:14:42.771Z,16.02
2018-06-15T22:17:11.303Z,16.65
2018-06-15T22:19:39.582Z,15.40
2018-06-15T22:22:07.858Z,15.08
2018-06-15T22:24:36.222Z,16.70
2018-06-15T22:27:04.611Z,16.42
2018-06-15T22:29:32.980Z,16.45
2018-06-15T22:32:01.457Z,15.63
2018-06-15T22:34:29.738Z,18.45
2018-06-15T22:36:57.999Z,18.87
2018-06-15T22:39:27.746Z,18.15
2018-06-15T22:41:55.964Z,16.70
2018-06-15T22:44:26.922Z,17.57
2018-06-15T22:46:55.212Z,16.55
2018-06-15T22:49:23.499Z,17.70
2018-06-15T22:51:51.742Z,17.90
2018-06-15T22:54:20.063Z,18.12
2018-06-15T22:56:48.072Z,17.27
2018-06-15T22:59:16.357Z,17.20
2018-06-15T23:01:44.658Z,17.00
2018-06-15T23:04:12.920Z,16.57
2018-06-15T23:06:41.191Z,17.27
2018-06-15T23:09:10.854Z,17.93
2018-06-15T23:11:39.326Z,17.70
2018-06-15T23:14:07.598Z,16.97
2018-06-15T23:16:35.600Z,16.97
2018-06-15T23:19:03.887Z,18.57
2018-06-15T23:21:32.143Z,19.23
2018-06-15T23:24:00.402Z,18.87
2018-06-15T23:26:28.608Z,20.17
2018-06-15T23:28:56.918Z,19.65
2018-06-15T23:31:25.134Z,21.27
2018-06-15T23:33:53.406Z,20.00
2018-06-15T23:36:21.658Z,20.40
2018-06-15T23:38:49.917Z,20.62
2018-06-15T23:41:18.222Z,20.57
2018-06-15T23:43:46.509Z,19.87
2018-06-15T23:46:14.762Z,21.27
2018-06-15T23:48:43.229Z,21.20
2018-06-15T23:51:11.518Z,22.00
2018-06-15T23:53:39.765Z,22.00
2018-06-15T23:56:08.882Z,22.45
2018-06-15T23:58:37.119Z,22.75
